sensor_id;sensor_type;location;lat;lon;timestamp;pressure;altitude;pressure_sealevel;temperature;humidity
77279;BME280;66332;50.436;15.378;2023-01-19T05:00:58;97182.63;;;-1.64;83.33
77279;BME280;66332;50.436;15.378;2023-01-19T05:05:38;97188.16;;;-1.68;83.40
77279;BME280;66332;50.436;15.378;2023-01-19T05:10:20;97199.41;;;-1.39;83.41
77279;BME280;66332;50.436;15.378;2023-01-19T05:15:01;97206.41;;;-1.50;83.10
77279;BME280;66332;50.436;15.378;2023-01-19T05:19:42;97208.91;;;-1.70;84.64
77279;BME280;66332;50.436;15.378;2023-01-19T05:24:23;97214.22;;;-1.62;84.02
77279;BME280;66332;50.436;15.378;2023-01-19T05:29:04;97225.38;;;-1.61;83.20
77279;BME280;66332;50.436;15.378;2023-01-19T05:33:45;97211.59;;;-1.71;83.20
77279;BME280;66332;50.436;15.378;2023-01-19T05:38:27;97232.25;;;-1.62;84.54
77279;BME280;66332;50.436;15.378;2023-01-19T05:43:09;97226.63;;;-1.76;84.25
77279;BME280;66332;50.436;15.378;2023-01-19T05:47:50;97252.25;;;-1.75;84.07
77279;BME280;66332;50.436;15.378;2023-01-19T05:52:30;97264.34;;;-1.75;84.54
77279;BME280;66332;50.436;15.378;2023-01-19T05:57:11;97245.69;;;-1.89;85.83
77279;BME280;66332;50.436;15.378;2023-01-19T06:01:53;97274.88;;;-2.32;86.65
77279;BME280;66332;50.436;15.378;2023-01-19T06:06:33;97273.28;;;-2.44;87.30
77279;BME280;66332;50.436;15.378;2023-01-19T06:11:14;97274.69;;;-2.40;86.28
77279;BME280;66332;50.436;15.378;2023-01-19T06:15:59;97283.78;;;-2.24;85.68
77279;BME280;66332;50.436;15.378;2023-01-19T06:20:40;97289.56;;;-2.43;85.96
77279;BME280;66332;50.436;15.378;2023-01-19T06:25:21;97294.88;;;-2.67;86.63
77279;BME280;66332;50.436;15.378;2023-01-19T06:30:03;97290.31;;;-2.75;87.05
77279;BME280;66332;50.436;15.378;2023-01-19T06:34:44;97281.81;;;-2.87;87.89
77279;BME280;66332;50.436;15.378;2023-01-19T06:39:26;97303.78;;;-3.05;87.74
77279;BME280;66332;50.436;15.378;2023-01-19T06:44:07;97276.81;;;-3.22;88.10
77279;BME280;66332;50.436;15.378;2023-01-19T06:48:49;97261.03;;;-3.17;87.59
77279;BME280;66332;50.436;15.378;2023-01-19T06:53:30;97290.25;;;-3.07;88.77
77279;BME280;66332;50.436;15.378;2023-01-19T06:58:11;97296.09;;;-2.94;87.98
77279;BME280;66332;50.436;15.378;2023-01-19T07:02:52;97294.09;;;-3.02;87.86
77279;BME280;66332;50.436;15.378;2023-01-19T07:07:33;97272.59;;;-3.34;88.55
77279;BME280;66332;50.436;15.378;2023-01-19T07:12:14;97289.91;;;-3.25;87.68
77279;BME280;66332;50.436;15.378;2023-01-19T07:16:55;97286.03;;;-3.08;86.88
77279;BME280;66332;50.436;15.378;2023-01-19T07:21:36;97296.53;;;-3.11;88.12
77279;BME280;66332;50.436;15.378;2023-01-19T07:26:17;97301.59;;;-3.10;87.25
77279;BME280;66332;50.436;15.378;2023-01-19T07:31:00;97302.28;;;-2.96;87.17
77279;BME280;66332;50.436;15.378;2023-01-19T07:35:46;97307.06;;;-3.03;88.36
77279;BME280;66332;50.436;15.378;2023-01-19T07:40:28;97302.41;;;-3.09;88.62
77279;BME280;66332;50.436;15.378;2023-01-19T07:45:09;97308.00;;;-2.93;88.94
77279;BME280;66332;50.436;15.378;2023-01-19T07:49:50;97316.97;;;-2.65;86.81
77279;BME280;66332;50.436;15.378;2023-01-19T07:54:31;97322.25;;;-2.78;87.35
77279;BME280;66332;50.436;15.378;2023-01-19T07:59:12;97333.44;;;-2.45;86.72
77279;BME280;66332;50.436;15.378;2023-01-19T08:03:53;97325.38;;;-2.63;87.45
77279;BME280;66332;50.436;15.378;2023-01-19T08:08:34;97315.78;;;-2.49;86.69
77279;BME280;66332;50.436;15.378;2023-01-19T08:13:16;97302.94;;;-2.28;85.64
77279;BME280;66332;50.436;15.378;2023-01-19T08:18:00;97333.19;;;-2.42;86.35
77279;BME280;66332;50.436;15.378;2023-01-19T08:22:41;97330.22;;;-2.26;86.12
77279;BME280;66332;50.436;15.378;2023-01-19T08:27:22;97334.59;;;-2.05;85.05
77279;BME280;66332;50.436;15.378;2023-01-19T08:32:03;97330.53;;;-2.19;85.20
77279;BME280;66332;50.436;15.378;2023-01-19T08:36:46;97345.47;;;-2.02;85.23
77279;BME280;66332;50.436;15.378;2023-01-19T08:41:27;97342.59;;;-1.76;85.06
77279;BME280;66332;50.436;15.378;2023-01-19T08:46:08;97345.72;;;-1.73;84.36
77279;BME280;66332;50.436;15.378;2023-01-19T08:50:50;97353.44;;;-1.73;83.91
77279;BME280;66332;50.436;15.378;2023-01-19T08:55:32;97367.28;;;-1.53;84.28
77279;BME280;66332;50.436;15.378;2023-01-19T09:00:13;97368.44;;;-1.46;83.37
77279;BME280;66332;50.436;15.378;2023-01-19T09:04:54;97373.84;;;-1.28;83.08
77279;BME280;66332;50.436;15.378;2023-01-19T09:09:35;97371.94;;;-1.47;81.09
77279;BME280;66332;50.436;15.378;2023-01-19T09:14:17;97384.16;;;-1.49;80.97
77279;BME280;66332;50.436;15.378;2023-01-19T09:18:58;97398.03;;;-1.40;80.89
77279;BME280;66332;50.436;15.378;2023-01-19T09:23:39;97398.88;;;-1.40;81.13
77279;BME280;66332;50.436;15.378;2023-01-19T09:28:20;97392.47;;;-1.24;80.96
77279;BME280;66332;50.436;15.378;2023-01-19T09:33:06;97395.19;;;-1.16;80.72
77279;BME280;66332;50.436;15.378;2023-01-19T09:37:47;97401.34;;;-0.86;80.42
77279;BME280;66332;50.436;15.378;2023-01-19T09:42:42;97391.69;;;-1.15;80.09
77279;BME280;66332;50.436;15.378;2023-01-19T09:47:26;97391.00;;;-1.17;79.33
77279;BME280;66332;50.436;15.378;2023-01-19T09:52:13;97396.03;;;-1.16;79.11
77279;BME280;66332;50.436;15.378;2023-01-19T09:56:55;97390.28;;;-1.19;80.45
77279;BME280;66332;50.436;15.378;2023-01-19T10:06:20;97370.00;;;-1.12;80.13
77279;BME280;66332;50.436;15.378;2023-01-19T10:11:03;97392.06;;;-0.99;78.51
77279;BME280;66332;50.436;15.378;2023-01-19T10:16:22;97409.91;;;-1.07;78.38
77279;BME280;66332;50.436;15.378;2023-01-19T10:21:27;97408.81;;;-1.14;78.17
77279;BME280;66332;50.436;15.378;2023-01-19T10:26:15;97398.72;;;-0.96;76.78
77279;BME280;66332;50.436;15.378;2023-01-19T10:30:57;97409.53;;;-0.81;76.04
77279;BME280;66332;50.436;15.378;2023-01-19T10:35:38;97404.00;;;-0.98;75.79
77279;BME280;66332;50.436;15.378;2023-01-19T10:45:34;97416.72;;;-0.85;74.32
77279;BME280;66332;50.436;15.378;2023-01-19T10:55:02;97422.50;;;-0.93;74.51
77279;BME280;66332;50.436;15.378;2023-01-19T11:04:28;97420.22;;;-0.55;73.90
77279;BME280;66332;50.436;15.378;2023-01-19T11:09:19;97424.00;;;-0.69;74.32
77279;BME280;66332;50.436;15.378;2023-01-19T11:14:07;97423.50;;;-0.84;74.89
77279;BME280;66332;50.436;15.378;2023-01-19T11:18:53;97418.66;;;-0.77;73.02
77279;BME280;66332;50.436;15.378;2023-01-19T11:28:33;97414.84;;;-0.73;74.06
77279;BME280;66332;50.436;15.378;2023-01-19T11:33:24;97406.38;;;-0.64;73.96
77279;BME280;66332;50.436;15.378;2023-01-19T11:42:52;97380.22;;;-0.71;74.38
77279;BME280;66332;50.436;15.378;2023-01-19T11:47:43;97394.34;;;-0.75;75.27
77279;BME280;66332;50.436;15.378;2023-01-19T11:57:12;97384.41;;;-0.49;74.47
77279;BME280;66332;50.436;15.378;2023-01-19T12:01:58;97378.41;;;-0.80;75.14
77279;BME280;66332;50.436;15.378;2023-01-19T12:06:45;97363.28;;;-0.63;73.99
77279;BME280;66332;50.436;15.378;2023-01-19T12:11:35;97375.53;;;-0.56;74.90
77279;BME280;66332;50.436;15.378;2023-01-19T12:16:22;97373.09;;;-0.57;75.85
77279;BME280;66332;50.436;15.378;2023-01-19T12:21:04;97373.66;;;-0.44;74.85
77279;BME280;66332;50.436;15.378;2023-01-19T12:30:41;97357.09;;;-0.41;75.77
77279;BME280;66332;50.436;15.378;2023-01-19T12:40:34;97360.06;;;-0.46;76.49
77279;BME280;66332;50.436;15.378;2023-01-19T12:45:23;97356.47;;;-0.24;75.83
77279;BME280;66332;50.436;15.378;2023-01-19T12:50:16;97331.25;;;-0.61;76.09
77279;BME280;66332;50.436;15.378;2023-01-19T13:15:34;97360.13;;;-0.67;77.42
77279;BME280;66332;50.436;15.378;2023-01-19T13:20:24;97361.06;;;-0.78;76.88
77279;BME280;66332;50.436;15.378;2023-01-19T13:25:12;97359.16;;;-1.06;78.12
77279;BME280;66332;50.436;15.378;2023-01-19T13:29:53;97363.88;;;-1.11;77.98
77279;BME280;66332;50.436;15.378;2023-01-19T13:34:45;97362.69;;;-1.07;78.65
77279;BME280;66332;50.436;15.378;2023-01-19T13:39:31;97376.38;;;-1.07;77.99
77279;BME280;66332;50.436;15.378;2023-01-19T13:44:22;97364.16;;;-1.14;77.87
77279;BME280;66332;50.436;15.378;2023-01-19T13:49:21;97369.81;;;-1.21;78.10
77279;BME280;66332;50.436;15.378;2023-01-19T13:54:13;97383.56;;;-1.31;79.44
77279;BME280;66332;50.436;15.378;2023-01-19T14:03:40;97397.72;;;-1.47;78.35
77279;BME280;66332;50.436;15.378;2023-01-19T14:08:22;97398.66;;;-1.48;77.67
77279;BME280;66332;50.436;15.378;2023-01-19T14:13:04;97394.53;;;-1.71;77.41
77279;BME280;66332;50.436;15.378;2023-01-19T14:18:07;97401.22;;;-1.69;77.46
77279;BME280;66332;50.436;15.378;2023-01-19T14:22:48;97392.34;;;-1.76;77.07
77279;BME280;66332;50.436;15.378;2023-01-19T14:27:30;97403.63;;;-1.88;77.33
77279;BME280;66332;50.436;15.378;2023-01-19T14:32:14;97405.81;;;-1.83;77.84
77279;BME280;66332;50.436;15.378;2023-01-19T14:36:56;97395.66;;;-1.85;77.92
77279;BME280;66332;50.436;15.378;2023-01-19T14:41:46;97401.66;;;-1.96;77.97
77279;BME280;66332;50.436;15.378;2023-01-19T14:46:28;97407.13;;;-1.89;78.39
77279;BME280;66332;50.436;15.378;2023-01-19T14:51:15;97396.31;;;-1.72;78.19
77279;BME280;66332;50.436;15.378;2023-01-19T14:56:03;97400.94;;;-1.54;80.71
77279;BME280;66332;50.436;15.378;2023-01-19T15:00:46;97406.94;;;-1.65;78.54
77279;BME280;66332;50.436;15.378;2023-01-19T15:05:27;97407.03;;;-1.88;78.07
77279;BME280;66332;50.436;15.378;2023-01-19T15:10:16;97424.19;;;-1.77;77.53
77279;BME280;66332;50.436;15.378;2023-01-19T15:14:57;97425.53;;;-1.94;79.17
77279;BME280;66332;50.436;15.378;2023-01-19T15:19:38;97423.78;;;-1.93;78.60
77279;BME280;66332;50.436;15.378;2023-01-19T15:24:19;97423.78;;;-2.04;79.55
77279;BME280;66332;50.436;15.378;2023-01-19T15:31:40;97432.91;;;-1.89;79.07
77279;BME280;66332;50.436;15.378;2023-01-19T15:36:21;97439.00;;;-2.01;78.71
77279;BME280;66332;50.436;15.378;2023-01-19T15:41:12;97451.53;;;-1.97;78.88
77279;BME280;66332;50.436;15.378;2023-01-19T15:45:59;97460.56;;;-2.14;80.79
77279;BME280;66332;50.436;15.378;2023-01-19T15:50:43;97459.66;;;-2.24;82.32
77279;BME280;66332;50.436;15.378;2023-01-19T15:55:24;97467.72;;;-2.28;82.81
77279;BME280;66332;50.436;15.378;2023-01-19T16:00:06;97463.97;;;-2.69;81.34
77279;BME280;66332;50.436;15.378;2023-01-19T16:04:48;97468.25;;;-3.04;82.03
77279;BME280;66332;50.436;15.378;2023-01-19T16:09:29;97481.25;;;-3.29;82.46
77279;BME280;66332;50.436;15.378;2023-01-19T16:14:10;97481.38;;;-3.31;82.91
77279;BME280;66332;50.436;15.378;2023-01-19T16:18:51;97482.22;;;-3.19;82.23
77279;BME280;66332;50.436;15.378;2023-01-19T16:23:32;97489.88;;;-3.06;82.12
77279;BME280;66332;50.436;15.378;2023-01-19T16:28:13;97490.88;;;-2.73;81.71
77279;BME280;66332;50.436;15.378;2023-01-19T16:32:54;97495.84;;;-2.94;82.18
77279;BME280;66332;50.436;15.378;2023-01-19T16:37:35;97483.19;;;-3.09;81.66
77279;BME280;66332;50.436;15.378;2023-01-19T16:42:16;97492.44;;;-3.06;81.71
77279;BME280;66332;50.436;15.378;2023-01-19T16:46:56;97511.16;;;-2.93;82.13
77279;BME280;66332;50.436;15.378;2023-01-19T16:51:37;97508.69;;;-3.06;82.89
77279;BME280;66332;50.436;15.378;2023-01-19T16:56:18;97524.91;;;-3.16;82.90
77279;BME280;66332;50.436;15.378;2023-01-19T17:00:59;97529.97;;;-3.28;82.73
77279;BME280;66332;50.436;15.378;2023-01-19T17:05:49;97535.66;;;-3.59;84.38
77279;BME280;66332;50.436;15.378;2023-01-19T17:10:30;97541.22;;;-3.65;84.43
77279;BME280;66332;50.436;15.378;2023-01-19T17:15:11;97533.72;;;-3.69;84.71
77279;BME280;66332;50.436;15.378;2023-01-19T17:19:52;97540.13;;;-3.50;83.62
77279;BME280;66332;50.436;15.378;2023-01-19T17:24:32;97545.06;;;-3.47;83.87
77279;BME280;66332;50.436;15.378;2023-01-19T17:29:14;97539.28;;;-3.75;84.72
77279;BME280;66332;50.436;15.378;2023-01-19T17:33:55;97533.72;;;-4.05;85.82
77279;BME280;66332;50.436;15.378;2023-01-19T17:38:36;97561.63;;;-3.88;86.00
77279;BME280;66332;50.436;15.378;2023-01-19T17:43:17;97555.72;;;-4.01;86.57
77279;BME280;66332;50.436;15.378;2023-01-19T17:47:58;97551.09;;;-4.09;87.12
77279;BME280;66332;50.436;15.378;2023-01-19T17:52:39;97571.19;;;-4.03;86.78
77279;BME280;66332;50.436;15.378;2023-01-19T17:57:20;97583.72;;;-3.85;87.24
77279;BME280;66332;50.436;15.378;2023-01-19T18:02:01;97595.59;;;-3.59;86.84
77279;BME280;66332;50.436;15.378;2023-01-19T18:06:42;97589.38;;;-3.56;86.35
77279;BME280;66332;50.436;15.378;2023-01-19T18:11:23;97573.31;;;-3.34;85.92
77279;BME280;66332;50.436;15.378;2023-01-19T18:16:09;97599.25;;;-3.02;84.98
77279;BME280;66332;50.436;15.378;2023-01-19T18:20:51;97595.28;;;-3.06;84.16
77279;BME280;66332;50.436;15.378;2023-01-19T18:25:32;97593.59;;;-3.18;84.58
77279;BME280;66332;50.436;15.378;2023-01-19T18:30:13;97576.41;;;-3.42;85.70
77279;BME280;66332;50.436;15.378;2023-01-19T18:34:54;97588.59;;;-3.33;85.07
77279;BME280;66332;50.436;15.378;2023-01-19T18:39:37;97591.50;;;-3.37;85.62
77279;BME280;66332;50.436;15.378;2023-01-19T18:44:18;97591.59;;;-3.39;86.21
77279;BME280;66332;50.436;15.378;2023-01-19T18:48:59;97597.94;;;-3.08;84.55
77279;BME280;66332;50.436;15.378;2023-01-19T18:53:40;97581.13;;;-3.12;83.88
77279;BME280;66332;50.436;15.378;2023-01-19T18:58:22;97586.41;;;-3.26;84.48
77279;BME280;66332;50.436;15.378;2023-01-19T19:03:02;97588.97;;;-3.50;85.53
77279;BME280;66332;50.436;15.378;2023-01-19T19:07:43;97587.25;;;-3.62;86.01
77279;BME280;66332;50.436;15.378;2023-01-19T19:12:24;97590.44;;;-3.72;86.62
77279;BME280;66332;50.436;15.378;2023-01-19T19:17:05;97597.72;;;-3.53;85.96
77279;BME280;66332;50.436;15.378;2023-01-19T19:21:46;97602.59;;;-3.74;86.73
77279;BME280;66332;50.436;15.378;2023-01-19T19:26:28;97602.06;;;-3.66;86.76
77279;BME280;66332;50.436;15.378;2023-01-19T19:31:15;97603.28;;;-3.72;86.33
77279;BME280;66332;50.436;15.378;2023-01-19T19:35:57;97603.44;;;-3.86;86.41
77279;BME280;66332;50.436;15.378;2023-01-19T19:40:38;97599.06;;;-3.60;86.25
77279;BME280;66332;50.436;15.378;2023-01-19T19:45:19;97601.31;;;-3.55;85.37
77279;BME280;66332;50.436;15.378;2023-01-19T19:50:00;97609.72;;;-3.53;86.30
77279;BME280;66332;50.436;15.378;2023-01-19T19:54:41;97620.66;;;-3.75;86.29
77279;BME280;66332;50.436;15.378;2023-01-19T19:59:23;97615.25;;;-4.09;87.73
77279;BME280;66332;50.436;15.378;2023-01-19T20:04:09;97612.47;;;-4.06;87.44
77279;BME280;66332;50.436;15.378;2023-01-19T20:08:52;97621.31;;;-4.10;88.75
77279;BME280;66332;50.436;15.378;2023-01-19T20:13:35;97625.31;;;-4.06;87.91
77279;BME280;66332;50.436;15.378;2023-01-19T20:18:16;97628.09;;;-4.09;87.02
77279;BME280;66332;50.436;15.378;2023-01-19T20:23:00;97628.31;;;-3.86;86.90
77279;BME280;66332;50.436;15.378;2023-01-19T20:27:41;97637.81;;;-3.63;85.78
77279;BME280;66332;50.436;15.378;2023-01-19T20:32:23;97630.44;;;-4.06;86.82
77279;BME280;66332;50.436;15.378;2023-01-19T20:37:04;97635.38;;;-4.16;87.86
77279;BME280;66332;50.436;15.378;2023-01-19T20:41:46;97629.22;;;-4.13;88.28
77279;BME280;66332;50.436;15.378;2023-01-19T20:46:27;97619.75;;;-3.87;87.40
77279;BME280;66332;50.436;15.378;2023-01-19T20:51:10;97629.94;;;-3.98;86.29
77279;BME280;66332;50.436;15.378;2023-01-19T20:55:52;97626.13;;;-4.05;87.21
77279;BME280;66332;50.436;15.378;2023-01-19T21:00:34;97634.38;;;-4.26;87.79
77279;BME280;66332;50.436;15.378;2023-01-19T21:05:15;97630.88;;;-4.38;87.94
77279;BME280;66332;50.436;15.378;2023-01-19T21:09:56;97641.63;;;-4.32;87.48
77279;BME280;66332;50.436;15.378;2023-01-19T21:14:37;97634.66;;;-4.30;87.54
77279;BME280;66332;50.436;15.378;2023-01-19T21:19:19;97643.91;;;-4.28;87.60
77279;BME280;66332;50.436;15.378;2023-01-19T21:24:01;97643.16;;;-4.30;86.87
77279;BME280;66332;50.436;15.378;2023-01-19T21:28:42;97644.84;;;-4.16;87.17
77279;BME280;66332;50.436;15.378;2023-01-19T21:33:23;97629.84;;;-4.09;85.52
77279;BME280;66332;50.436;15.378;2023-01-19T21:38:04;97650.38;;;-4.09;85.64
77279;BME280;66332;50.436;15.378;2023-01-19T21:42:45;97628.19;;;-4.23;86.48
77279;BME280;66332;50.436;15.378;2023-01-19T21:47:26;97641.94;;;-4.11;86.41
77279;BME280;66332;50.436;15.378;2023-01-19T21:52:07;97649.34;;;-3.94;85.11
77279;BME280;66332;50.436;15.378;2023-01-19T21:56:48;97647.31;;;-3.89;85.58
77279;BME280;66332;50.436;15.378;2023-01-19T22:01:30;97650.16;;;-3.94;85.04
77279;BME280;66332;50.436;15.378;2023-01-19T22:06:12;97650.97;;;-3.93;84.59
77279;BME280;66332;50.436;15.378;2023-01-19T22:10:53;97653.88;;;-3.98;85.46
77279;BME280;66332;50.436;15.378;2023-01-19T22:15:34;97648.94;;;-4.01;84.97
77279;BME280;66332;50.436;15.378;2023-01-19T22:20:16;97631.25;;;-4.44;86.43
77279;BME280;66332;50.436;15.378;2023-01-19T22:24:57;97650.78;;;-4.16;85.58
77279;BME280;66332;50.436;15.378;2023-01-19T22:29:37;97653.44;;;-4.17;85.01
77279;BME280;66332;50.436;15.378;2023-01-19T22:34:18;97653.56;;;-4.31;86.10
77279;BME280;66332;50.436;15.378;2023-01-19T22:39:02;97661.25;;;-4.31;86.51
77279;BME280;66332;50.436;15.378;2023-01-19T22:43:43;97658.50;;;-4.16;85.01
77279;BME280;66332;50.436;15.378;2023-01-19T22:48:24;97634.13;;;-4.35;84.76
77279;BME280;66332;50.436;15.378;2023-01-19T22:53:05;97657.72;;;-4.56;85.82
